sensor_id;sensor_type;location;lat;lon;timestamp;temperature;humidity
46091;DHT22;31826;53.572;10.170;2023-08-12T00:00:51;19.60;99.90
46091;DHT22;31826;53.572;10.170;2023-08-12T00:03:17;19.50;99.90
46091;DHT22;31826;53.572;10.170;2023-08-12T00:05:42;19.60;99.90
46091;DHT22;31826;53.572;10.170;2023-08-12T00:08:09;19.50;99.90
46091;DHT22;31826;53.572;10.170;2023-08-12T00:10:34;19.50;99.90
46091;DHT22;31826;53.572;10.170;2023-08-12T00:13:00;19.50;99.90
46091;DHT22;31826;53.572;10.170;2023-08-12T00:15:26;19.60;99.90
46091;DHT22;31826;53.572;10.170;2023-08-12T00:17:52;19.60;99.90
46091;DHT22;31826;53.572;10.170;2023-08-12T00:20:18;19.60;99.90
46091;DHT22;31826;53.572;10.170;2023-08-12T00:22:44;19.50;99.90
46091;DHT22;31826;53.572;10.170;2023-08-12T00:25:09;19.40;99.90
46091;DHT22;31826;53.572;10.170;2023-08-12T00:27:35;19.30;99.90
46091;DHT22;31826;53.572;10.170;2023-08-12T00:30:03;19.30;99.90
46091;DHT22;31826;53.572;10.170;2023-08-12T00:32:29;19.30;99.90
46091;DHT22;31826;53.572;10.170;2023-08-12T00:34:55;19.20;99.90
46091;DHT22;31826;53.572;10.170;2023-08-12T00:37:21;19.20;99.90
46091;DHT22;31826;53.572;10.170;2023-08-12T00:39:47;19.20;99.90
46091;DHT22;31826;53.572;10.170;2023-08-12T00:42:12;19.20;99.90
46091;DHT22;31826;53.572;10.170;2023-08-12T00:44:38;19.20;99.90
46091;DHT22;31826;53.572;10.170;2023-08-12T00:47:04;19.20;99.90
46091;DHT22;31826;53.572;10.170;2023-08-12T00:49:31;19.20;99.90
46091;DHT22;31826;53.572;10.170;2023-08-12T00:51:58;19.20;99.90
46091;DHT22;31826;53.572;10.170;2023-08-12T00:54:25;19.10;99.90
46091;DHT22;31826;53.572;10.170;2023-08-12T00:56:53;19.10;99.90
46091;DHT22;31826;53.572;10.170;2023-08-12T00:59:19;19.10;99.90
46091;DHT22;31826;53.572;10.170;2023-08-12T01:01:46;19.00;99.90
46091;DHT22;31826;53.572;10.170;2023-08-12T01:04:12;19.00;99.90
46091;DHT22;31826;53.572;10.170;2023-08-12T01:06:38;19.10;99.90
46091;DHT22;31826;53.572;10.170;2023-08-12T01:09:05;19.00;99.90
46091;DHT22;31826;53.572;10.170;2023-08-12T01:14:28;19.00;99.90
46091;DHT22;31826;53.572;10.170;2023-08-12T01:17:02;19.00;99.90
46091;DHT22;31826;53.572;10.170;2023-08-12T01:19:37;19.00;99.90
46091;DHT22;31826;53.572;10.170;2023-08-12T01:22:04;19.00;99.90
46091;DHT22;31826;53.572;10.170;2023-08-12T01:24:41;18.90;99.90
46091;DHT22;31826;53.572;10.170;2023-08-12T01:27:08;18.90;99.90
46091;DHT22;31826;53.572;10.170;2023-08-12T01:29:46;18.90;99.90
46091;DHT22;31826;53.572;10.170;2023-08-12T01:37:28;18.80;99.90
46091;DHT22;31826;53.572;10.170;2023-08-12T01:39:55;18.80;99.90
46091;DHT22;31826;53.572;10.170;2023-08-12T01:42:22;18.80;99.90
46091;DHT22;31826;53.572;10.170;2023-08-12T01:44:48;18.70;99.90
46091;DHT22;31826;53.572;10.170;2023-08-12T01:47:20;18.70;99.90
46091;DHT22;31826;53.572;10.170;2023-08-12T01:49:45;18.70;99.90
46091;DHT22;31826;53.572;10.170;2023-08-12T01:52:11;18.70;99.90
46091;DHT22;31826;53.572;10.170;2023-08-12T01:54:37;18.80;99.90
46091;DHT22;31826;53.572;10.170;2023-08-12T01:57:03;18.80;99.90
46091;DHT22;31826;53.572;10.170;2023-08-12T01:59:37;18.70;99.90
46091;DHT22;31826;53.572;10.170;2023-08-12T02:02:03;18.80;99.90
46091;DHT22;31826;53.572;10.170;2023-08-12T02:04:30;18.80;99.90
46091;DHT22;31826;53.572;10.170;2023-08-12T02:06:56;18.80;99.90
46091;DHT22;31826;53.572;10.170;2023-08-12T02:09:23;18.80;99.90
46091;DHT22;31826;53.572;10.170;2023-08-12T02:11:49;18.80;99.90
46091;DHT22;31826;53.572;10.170;2023-08-12T02:14:15;18.70;99.90
46091;DHT22;31826;53.572;10.170;2023-08-12T02:16:41;18.70;99.90
46091;DHT22;31826;53.572;10.170;2023-08-12T02:19:07;18.60;99.90
46091;DHT22;31826;53.572;10.170;2023-08-12T02:21:33;18.60;99.90
46091;DHT22;31826;53.572;10.170;2023-08-12T02:23:58;18.60;99.90
46091;DHT22;31826;53.572;10.170;2023-08-12T02:26:24;18.50;99.90
46091;DHT22;31826;53.572;10.170;2023-08-12T02:28:50;18.40;99.90
46091;DHT22;31826;53.572;10.170;2023-08-12T02:31:15;18.50;99.90
46091;DHT22;31826;53.572;10.170;2023-08-12T02:33:41;18.40;99.90
46091;DHT22;31826;53.572;10.170;2023-08-12T02:36:07;18.50;99.90
46091;DHT22;31826;53.572;10.170;2023-08-12T02:38:33;18.50;99.90
46091;DHT22;31826;53.572;10.170;2023-08-12T02:40:58;18.50;99.90
46091;DHT22;31826;53.572;10.170;2023-08-12T02:43:24;18.40;99.90
46091;DHT22;31826;53.572;10.170;2023-08-12T02:45:50;18.30;99.90
46091;DHT22;31826;53.572;10.170;2023-08-12T02:48:16;18.30;99.90
46091;DHT22;31826;53.572;10.170;2023-08-12T02:50:41;18.20;99.90
46091;DHT22;31826;53.572;10.170;2023-08-12T02:53:07;18.30;99.90
46091;DHT22;31826;53.572;10.170;2023-08-12T02:55:34;18.30;99.90
46091;DHT22;31826;53.572;10.170;2023-08-12T02:58:03;18.40;99.90
46091;DHT22;31826;53.572;10.170;2023-08-12T03:00:28;18.40;99.90
46091;DHT22;31826;53.572;10.170;2023-08-12T03:02:54;18.40;99.90
46091;DHT22;31826;53.572;10.170;2023-08-12T03:05:21;18.50;99.90
46091;DHT22;31826;53.572;10.170;2023-08-12T03:07:46;18.50;99.90
46091;DHT22;31826;53.572;10.170;2023-08-12T03:10:12;18.40;99.90
46091;DHT22;31826;53.572;10.170;2023-08-12T03:12:38;18.30;99.90
46091;DHT22;31826;53.572;10.170;2023-08-12T03:15:06;18.40;99.90
46091;DHT22;31826;53.572;10.170;2023-08-12T03:17:31;18.40;99.90
46091;DHT22;31826;53.572;10.170;2023-08-12T03:19:57;18.40;99.90
46091;DHT22;31826;53.572;10.170;2023-08-12T03:22:29;18.40;99.90
46091;DHT22;31826;53.572;10.170;2023-08-12T03:24:55;18.40;99.90
46091;DHT22;31826;53.572;10.170;2023-08-12T03:27:21;18.40;99.90
46091;DHT22;31826;53.572;10.170;2023-08-12T03:29:47;18.50;99.90
46091;DHT22;31826;53.572;10.170;2023-08-12T03:32:13;18.50;99.90
46091;DHT22;31826;53.572;10.170;2023-08-12T03:34:39;18.50;99.90
46091;DHT22;31826;53.572;10.170;2023-08-12T03:37:04;18.40;99.90
46091;DHT22;31826;53.572;10.170;2023-08-12T03:39:30;18.40;99.90
46091;DHT22;31826;53.572;10.170;2023-08-12T03:41:56;18.40;99.90
46091;DHT22;31826;53.572;10.170;2023-08-12T03:44:22;18.30;99.90
46091;DHT22;31826;53.572;10.170;2023-08-12T03:46:47;18.30;99.90
46091;DHT22;31826;53.572;10.170;2023-08-12T03:49:13;18.30;99.90
46091;DHT22;31826;53.572;10.170;2023-08-12T03:51:39;18.30;99.90
46091;DHT22;31826;53.572;10.170;2023-08-12T03:54:05;18.30;99.90
46091;DHT22;31826;53.572;10.170;2023-08-12T03:56:31;18.20;99.90
46091;DHT22;31826;53.572;10.170;2023-08-12T03:58:56;18.10;99.90
46091;DHT22;31826;53.572;10.170;2023-08-12T04:01:22;18.20;99.90
46091;DHT22;31826;53.572;10.170;2023-08-12T04:03:48;18.20;99.90
46091;DHT22;31826;53.572;10.170;2023-08-12T04:06:14;18.20;99.90
46091;DHT22;31826;53.572;10.170;2023-08-12T04:08:39;18.30;99.90
46091;DHT22;31826;53.572;10.170;2023-08-12T04:11:05;18.30;99.90
46091;DHT22;31826;53.572;10.170;2023-08-12T04:13:31;18.20;99.90
46091;DHT22;31826;53.572;10.170;2023-08-12T04:15:56;18.30;99.90
46091;DHT22;31826;53.572;10.170;2023-08-12T04:18:22;18.20;99.90
46091;DHT22;31826;53.572;10.170;2023-08-12T04:20:52;18.10;99.90
46091;DHT22;31826;53.572;10.170;2023-08-12T04:23:18;18.00;99.90
46091;DHT22;31826;53.572;10.170;2023-08-12T04:25:46;18.00;99.90
46091;DHT22;31826;53.572;10.170;2023-08-12T04:28:13;18.00;99.90
46091;DHT22;31826;53.572;10.170;2023-08-12T04:30:46;18.10;99.90
46091;DHT22;31826;53.572;10.170;2023-08-12T04:33:13;18.20;99.90
46091;DHT22;31826;53.572;10.170;2023-08-12T04:35:40;18.20;99.90
46091;DHT22;31826;53.572;10.170;2023-08-12T04:38:06;18.20;99.90
46091;DHT22;31826;53.572;10.170;2023-08-12T04:40:32;18.00;99.90
46091;DHT22;31826;53.572;10.170;2023-08-12T04:42:58;18.00;99.90
46091;DHT22;31826;53.572;10.170;2023-08-12T04:45:24;18.00;99.90
46091;DHT22;31826;53.572;10.170;2023-08-12T04:47:50;18.00;99.90
46091;DHT22;31826;53.572;10.170;2023-08-12T04:50:16;18.00;99.90
46091;DHT22;31826;53.572;10.170;2023-08-12T04:52:41;18.10;99.90
46091;DHT22;31826;53.572;10.170;2023-08-12T04:55:07;18.10;99.90
46091;DHT22;31826;53.572;10.170;2023-08-12T04:57:33;18.10;99.90
46091;DHT22;31826;53.572;10.170;2023-08-12T04:59:59;18.00;99.90
46091;DHT22;31826;53.572;10.170;2023-08-12T05:02:25;18.00;99.90
46091;DHT22;31826;53.572;10.170;2023-08-12T05:04:51;18.00;99.90
46091;DHT22;31826;53.572;10.170;2023-08-12T05:07:17;18.00;99.90
46091;DHT22;31826;53.572;10.170;2023-08-12T05:09:43;18.00;99.90
46091;DHT22;31826;53.572;10.170;2023-08-12T05:12:11;18.00;99.90
46091;DHT22;31826;53.572;10.170;2023-08-12T05:14:38;18.10;99.90
46091;DHT22;31826;53.572;10.170;2023-08-12T05:17:05;18.20;99.90
46091;DHT22;31826;53.572;10.170;2023-08-12T05:19:31;18.30;99.90
46091;DHT22;31826;53.572;10.170;2023-08-12T05:21:57;18.40;99.90
46091;DHT22;31826;53.572;10.170;2023-08-12T05:24:23;18.40;99.90
46091;DHT22;31826;53.572;10.170;2023-08-12T05:26:48;18.40;99.90
46091;DHT22;31826;53.572;10.170;2023-08-12T05:29:14;18.50;99.90
46091;DHT22;31826;53.572;10.170;2023-08-12T05:31:40;18.50;99.90
46091;DHT22;31826;53.572;10.170;2023-08-12T05:34:05;18.40;99.90
46091;DHT22;31826;53.572;10.170;2023-08-12T05:36:31;18.30;99.90
46091;DHT22;31826;53.572;10.170;2023-08-12T05:38:57;18.30;99.90
46091;DHT22;31826;53.572;10.170;2023-08-12T05:41:23;18.30;99.90
46091;DHT22;31826;53.572;10.170;2023-08-12T05:43:48;18.40;99.90
46091;DHT22;31826;53.572;10.170;2023-08-12T05:46:14;18.40;99.90
46091;DHT22;31826;53.572;10.170;2023-08-12T05:48:40;18.40;99.90
46091;DHT22;31826;53.572;10.170;2023-08-12T05:51:06;18.50;99.90
46091;DHT22;31826;53.572;10.170;2023-08-12T05:53:32;18.60;99.90
46091;DHT22;31826;53.572;10.170;2023-08-12T05:55:58;18.60;99.90
46091;DHT22;31826;53.572;10.170;2023-08-12T05:58:24;18.70;99.90
46091;DHT22;31826;53.572;10.170;2023-08-12T06:00:50;18.70;99.90
46091;DHT22;31826;53.572;10.170;2023-08-12T06:03:16;18.70;99.90
46091;DHT22;31826;53.572;10.170;2023-08-12T06:05:46;18.70;99.90
46091;DHT22;31826;53.572;10.170;2023-08-12T06:08:12;18.60;99.90
46091;DHT22;31826;53.572;10.170;2023-08-12T06:10:38;18.70;99.90
46091;DHT22;31826;53.572;10.170;2023-08-12T06:13:04;18.70;99.90
46091;DHT22;31826;53.572;10.170;2023-08-12T06:15:30;18.80;99.90
46091;DHT22;31826;53.572;10.170;2023-08-12T06:17:56;18.80;99.90
46091;DHT22;31826;53.572;10.170;2023-08-12T06:20:23;18.80;99.90
46091;DHT22;31826;53.572;10.170;2023-08-12T06:22:49;18.80;99.90
46091;DHT22;31826;53.572;10.170;2023-08-12T06:25:15;18.90;99.90
46091;DHT22;31826;53.572;10.170;2023-08-12T06:27:41;18.80;99.90
46091;DHT22;31826;53.572;10.170;2023-08-12T06:30:07;18.80;99.90
46091;DHT22;31826;53.572;10.170;2023-08-12T06:32:34;18.80;99.90
46091;DHT22;31826;53.572;10.170;2023-08-12T06:35:00;18.80;99.90
46091;DHT22;31826;53.572;10.170;2023-08-12T06:37:25;18.80;99.90
46091;DHT22;31826;53.572;10.170;2023-08-12T06:39:51;18.80;99.90
46091;DHT22;31826;53.572;10.170;2023-08-12T06:42:17;18.80;99.90
46091;DHT22;31826;53.572;10.170;2023-08-12T06:44:42;18.80;99.90
46091;DHT22;31826;53.572;10.170;2023-08-12T06:47:08;18.80;99.90
46091;DHT22;31826;53.572;10.170;2023-08-12T06:49:33;18.80;99.90
46091;DHT22;31826;53.572;10.170;2023-08-12T06:51:59;18.80;99.90
46091;DHT22;31826;53.572;10.170;2023-08-12T06:54:25;18.90;99.90
46091;DHT22;31826;53.572;10.170;2023-08-12T06:56:51;18.90;99.90
46091;DHT22;31826;53.572;10.170;2023-08-12T06:59:16;18.90;99.90
46091;DHT22;31826;53.572;10.170;2023-08-12T07:01:42;19.00;99.90
46091;DHT22;31826;53.572;10.170;2023-08-12T07:04:08;19.00;99.90
46091;DHT22;31826;53.572;10.170;2023-08-12T07:06:34;19.00;99.90
46091;DHT22;31826;53.572;10.170;2023-08-12T07:08:59;18.90;99.90
46091;DHT22;31826;53.572;10.170;2023-08-12T07:11:25;18.90;99.90
46091;DHT22;31826;53.572;10.170;2023-08-12T07:13:51;19.00;99.90
46091;DHT22;31826;53.572;10.170;2023-08-12T07:16:16;19.00;99.90
46091;DHT22;31826;53.572;10.170;2023-08-12T07:18:42;19.00;99.90
46091;DHT22;31826;53.572;10.170;2023-08-12T07:21:08;19.00;99.90
46091;DHT22;31826;53.572;10.170;2023-08-12T07:23:33;19.10;99.90
46091;DHT22;31826;53.572;10.170;2023-08-12T07:25:59;19.10;99.90
46091;DHT22;31826;53.572;10.170;2023-08-12T07:28:25;19.20;99.90
46091;DHT22;31826;53.572;10.170;2023-08-12T07:30:50;19.20;99.90
46091;DHT22;31826;53.572;10.170;2023-08-12T07:33:17;19.30;99.90
46091;DHT22;31826;53.572;10.170;2023-08-12T07:35:43;19.40;99.90
46091;DHT22;31826;53.572;10.170;2023-08-12T07:38:09;19.40;99.90
46091;DHT22;31826;53.572;10.170;2023-08-12T07:40:34;19.50;99.90
46091;DHT22;31826;53.572;10.170;2023-08-12T07:43:00;19.40;99.90
46091;DHT22;31826;53.572;10.170;2023-08-12T07:45:26;19.50;99.90
46091;DHT22;31826;53.572;10.170;2023-08-12T07:47:51;19.50;99.90
46091;DHT22;31826;53.572;10.170;2023-08-12T07:50:17;19.50;99.90
46091;DHT22;31826;53.572;10.170;2023-08-12T07:52:43;19.60;99.90
46091;DHT22;31826;53.572;10.170;2023-08-12T07:55:09;19.60;99.90
46091;DHT22;31826;53.572;10.170;2023-08-12T07:57:35;19.70;99.90
46091;DHT22;31826;53.572;10.170;2023-08-12T08:00:00;19.80;99.90
46091;DHT22;31826;53.572;10.170;2023-08-12T08:02:26;19.80;99.90
46091;DHT22;31826;53.572;10.170;2023-08-12T08:04:52;19.80;99.90
46091;DHT22;31826;53.572;10.170;2023-08-12T08:07:17;19.80;99.90
46091;DHT22;31826;53.572;10.170;2023-08-12T08:09:44;19.70;99.90
46091;DHT22;31826;53.572;10.170;2023-08-12T08:12:10;19.80;99.90
46091;DHT22;31826;53.572;10.170;2023-08-12T08:14:36;19.70;99.90
46091;DHT22;31826;53.572;10.170;2023-08-12T08:17:02;19.60;99.90
46091;DHT22;31826;53.572;10.170;2023-08-12T08:19:28;19.70;99.90
46091;DHT22;31826;53.572;10.170;2023-08-12T08:21:54;19.80;99.90
46091;DHT22;31826;53.572;10.170;2023-08-12T08:24:20;19.80;99.90
46091;DHT22;31826;53.572;10.170;2023-08-12T08:26:45;19.80;99.90
46091;DHT22;31826;53.572;10.170;2023-08-12T08:29:12;19.70;99.90
46091;DHT22;31826;53.572;10.170;2023-08-12T08:31:38;19.70;99.90
46091;DHT22;31826;53.572;10.170;2023-08-12T08:34:04;19.80;99.90
46091;DHT22;31826;53.572;10.170;2023-08-12T08:36:30;19.90;99.90
46091;DHT22;31826;53.572;10.170;2023-08-12T08:38:56;20.00;99.90
46091;DHT22;31826;53.572;10.170;2023-08-12T08:41:22;20.10;99.90
46091;DHT22;31826;53.572;10.170;2023-08-12T08:43:50;20.10;99.90
46091;DHT22;31826;53.572;10.170;2023-08-12T08:46:18;20.20;99.90
46091;DHT22;31826;53.572;10.170;2023-08-12T08:48:44;20.30;99.90
46091;DHT22;31826;53.572;10.170;2023-08-12T08:51:11;20.20;99.90
46091;DHT22;31826;53.572;10.170;2023-08-12T08:53:40;20.10;99.90
46091;DHT22;31826;53.572;10.170;2023-08-12T08:56:07;20.10;99.90
46091;DHT22;31826;53.572;10.170;2023-08-12T08:58:33;20.10;99.90
46091;DHT22;31826;53.572;10.170;2023-08-12T09:01:00;20.00;99.90
46091;DHT22;31826;53.572;10.170;2023-08-12T09:03:26;20.10;99.90
46091;DHT22;31826;53.572;10.170;2023-08-12T09:05:54;20.30;99.90
46091;DHT22;31826;53.572;10.170;2023-08-12T09:08:21;20.30;99.90
46091;DHT22;31826;53.572;10.170;2023-08-12T09:10:48;20.20;99.90
46091;DHT22;31826;53.572;10.170;2023-08-12T09:13:14;20.30;99.90
46091;DHT22;31826;53.572;10.170;2023-08-12T09:15:40;20.30;99.90
46091;DHT22;31826;53.572;10.170;2023-08-12T09:18:06;20.30;99.90
46091;DHT22;31826;53.572;10.170;2023-08-12T09:20:34;20.50;99.90
46091;DHT22;31826;53.572;10.170;2023-08-12T09:23:00;20.60;99.90
46091;DHT22;31826;53.572;10.170;2023-08-12T09:25:29;20.70;99.90
46091;DHT22;31826;53.572;10.170;2023-08-12T09:27:58;20.90;99.90
46091;DHT22;31826;53.572;10.170;2023-08-12T09:30:25;21.10;99.90
46091;DHT22;31826;53.572;10.170;2023-08-12T09:33:01;21.30;99.90
46091;DHT22;31826;53.572;10.170;2023-08-12T09:35:41;21.40;99.90
46091;DHT22;31826;53.572;10.170;2023-08-12T09:38:12;21.20;99.90
46091;DHT22;31826;53.572;10.170;2023-08-12T09:40:41;21.40;99.90
46091;DHT22;31826;53.572;10.170;2023-08-12T09:43:07;21.50;99.90
46091;DHT22;31826;53.572;10.170;2023-08-12T09:45:34;21.60;99.90
46091;DHT22;31826;53.572;10.170;2023-08-12T09:48:00;21.70;99.90
46091;DHT22;31826;53.572;10.170;2023-08-12T09:50:26;21.70;99.90
46091;DHT22;31826;53.572;10.170;2023-08-12T09:52:53;21.60;99.90
46091;DHT22;31826;53.572;10.170;2023-08-12T09:55:21;21.60;99.90
46091;DHT22;31826;53.572;10.170;2023-08-12T09:57:51;21.60;99.90
46091;DHT22;31826;53.572;10.170;2023-08-12T10:00:22;21.60;99.90
46091;DHT22;31826;53.572;10.170;2023-08-12T10:02:50;21.40;99.90
46091;DHT22;31826;53.572;10.170;2023-08-12T10:05:43;21.50;99.90
46091;DHT22;31826;53.572;10.170;2023-08-12T10:08:09;21.40;99.90
46091;DHT22;31826;53.572;10.170;2023-08-12T10:10:36;21.40;99.90
46091;DHT22;31826;53.572;10.170;2023-08-12T10:13:02;21.40;99.90
46091;DHT22;31826;53.572;10.170;2023-08-12T10:15:29;21.40;99.90
46091;DHT22;31826;53.572;10.170;2023-08-12T10:17:56;21.50;99.90
46091;DHT22;31826;53.572;10.170;2023-08-12T10:20:24;21.60;99.90
46091;DHT22;31826;53.572;10.170;2023-08-12T10:22:51;21.50;99.90
46091;DHT22;31826;53.572;10.170;2023-08-12T10:25:18;21.40;99.90
46091;DHT22;31826;53.572;10.170;2023-08-12T10:27:47;21.30;99.90
46091;DHT22;31826;53.572;10.170;2023-08-12T10:30:14;21.40;99.90
46091;DHT22;31826;53.572;10.170;2023-08-12T10:32:40;21.60;99.90
46091;DHT22;31826;53.572;10.170;2023-08-12T10:35:06;21.80;99.90
46091;DHT22;31826;53.572;10.170;2023-08-12T10:37:33;21.90;99.90
46091;DHT22;31826;53.572;10.170;2023-08-12T10:40:02;22.10;99.90
46091;DHT22;31826;53.572;10.170;2023-08-12T10:42:48;22.30;99.90
46091;DHT22;31826;53.572;10.170;2023-08-12T10:45:15;22.30;99.90
46091;DHT22;31826;53.572;10.170;2023-08-12T10:50:28;22.00;99.90
46091;DHT22;31826;53.572;10.170;2023-08-12T10:52:56;22.00;99.90
46091;DHT22;31826;53.572;10.170;2023-08-12T10:55:23;22.00;99.90
46091;DHT22;31826;53.572;10.170;2023-08-12T10:57:53;22.00;99.90
46091;DHT22;31826;53.572;10.170;2023-08-12T11:00:29;22.00;99.90
46091;DHT22;31826;53.572;10.170;2023-08-12T11:02:56;22.00;99.90
46091;DHT22;31826;53.572;10.170;2023-08-12T11:05:23;22.00;99.90
46091;DHT22;31826;53.572;10.170;2023-08-12T11:07:56;22.00;99.90
46091;DHT22;31826;53.572;10.170;2023-08-12T11:10:27;22.00;99.90
46091;DHT22;31826;53.572;10.170;2023-08-12T11:12:55;22.30;99.90
46091;DHT22;31826;53.572;10.170;2023-08-12T11:17:55;23.10;99.90
46091;DHT22;31826;53.572;10.170;2023-08-12T11:20:21;23.30;99.90
46091;DHT22;31826;53.572;10.170;2023-08-12T11:22:47;23.30;99.90
46091;DHT22;31826;53.572;10.170;2023-08-12T11:25:14;23.40;99.90
46091;DHT22;31826;53.572;10.170;2023-08-12T11:27:44;23.60;99.90
46091;DHT22;31826;53.572;10.170;2023-08-12T11:30:18;23.60;99.90
46091;DHT22;31826;53.572;10.170;2023-08-12T11:32:47;23.40;99.90
46091;DHT22;31826;53.572;10.170;2023-08-12T11:35:13;23.20;99.90
46091;DHT22;31826;53.572;10.170;2023-08-12T11:37:41;23.10;99.90
46091;DHT22;31826;53.572;10.170;2023-08-12T11:40:09;23.00;99.90
46091;DHT22;31826;53.572;10.170;2023-08-12T11:42:39;22.70;99.90
46091;DHT22;31826;53.572;10.170;2023-08-12T11:45:06;22.40;99.90
46091;DHT22;31826;53.572;10.170;2023-08-12T11:47:33;22.40;99.90
46091;DHT22;31826;53.572;10.170;2023-08-12T11:49:58;22.40;99.90
46091;DHT22;31826;53.572;10.170;2023-08-12T11:52:27;22.40;99.90
46091;DHT22;31826;53.572;10.170;2023-08-12T11:54:53;22.30;99.90
46091;DHT22;31826;53.572;10.170;2023-08-12T11:57:18;22.10;99.90
46091;DHT22;31826;53.572;10.170;2023-08-12T11:59:44;22.10;99.90
46091;DHT22;31826;53.572;10.170;2023-08-12T12:02:10;22.00;99.90
46091;DHT22;31826;53.572;10.170;2023-08-12T12:04:37;22.00;99.90
46091;DHT22;31826;53.572;10.170;2023-08-12T12:07:03;21.90;99.90
46091;DHT22;31826;53.572;10.170;2023-08-12T12:09:43;21.90;99.90
46091;DHT22;31826;53.572;10.170;2023-08-12T12:12:10;21.70;99.90
46091;DHT22;31826;53.572;10.170;2023-08-12T12:14:36;21.90;99.90
46091;DHT22;31826;53.572;10.170;2023-08-12T12:17:07;21.90;99.90
46091;DHT22;31826;53.572;10.170;2023-08-12T12:19:34;21.90;99.90
46091;DHT22;31826;53.572;10.170;2023-08-12T12:22:03;21.90;99.90
46091;DHT22;31826;53.572;10.170;2023-08-12T12:24:30;21.90;99.90
46091;DHT22;31826;53.572;10.170;2023-08-12T12:26:56;22.00;99.90
46091;DHT22;31826;53.572;10.170;2023-08-12T12:29:22;22.10;99.90
46091;DHT22;31826;53.572;10.170;2023-08-12T12:31:48;22.00;99.90
46091;DHT22;31826;53.572;10.170;2023-08-12T12:34:14;22.10;99.90
46091;DHT22;31826;53.572;10.170;2023-08-12T12:36:40;22.20;99.90
46091;DHT22;31826;53.572;10.170;2023-08-12T12:39:06;22.20;99.90
46091;DHT22;31826;53.572;10.170;2023-08-12T12:41:33;22.20;99.90
46091;DHT22;31826;53.572;10.170;2023-08-12T12:44:01;22.20;99.90
46091;DHT22;31826;53.572;10.170;2023-08-12T12:46:28;22.30;99.90
46091;DHT22;31826;53.572;10.170;2023-08-12T12:48:53;22.30;99.90
46091;DHT22;31826;53.572;10.170;2023-08-12T12:51:19;22.40;99.90
46091;DHT22;31826;53.572;10.170;2023-08-12T12:53:45;22.60;99.90
46091;DHT22;31826;53.572;10.170;2023-08-12T12:56:10;22.90;99.90
46091;DHT22;31826;53.572;10.170;2023-08-12T12:58:37;23.00;99.90
46091;DHT22;31826;53.572;10.170;2023-08-12T13:01:04;22.90;99.90
46091;DHT22;31826;53.572;10.170;2023-08-12T13:03:30;23.00;99.90
46091;DHT22;31826;53.572;10.170;2023-08-12T13:05:57;22.90;99.90
46091;DHT22;31826;53.572;10.170;2023-08-12T13:08:23;22.80;99.90
46091;DHT22;31826;53.572;10.170;2023-08-12T13:10:49;22.70;99.90
46091;DHT22;31826;53.572;10.170;2023-08-12T13:13:15;22.70;99.90
46091;DHT22;31826;53.572;10.170;2023-08-12T13:15:42;22.60;99.90
46091;DHT22;31826;53.572;10.170;2023-08-12T13:18:08;22.70;99.90
46091;DHT22;31826;53.572;10.170;2023-08-12T13:20:35;22.70;99.90
46091;DHT22;31826;53.572;10.170;2023-08-12T13:23:00;22.70;99.90
46091;DHT22;31826;53.572;10.170;2023-08-12T13:25:29;22.60;99.90
46091;DHT22;31826;53.572;10.170;2023-08-12T13:27:56;22.50;99.90
46091;DHT22;31826;53.572;10.170;2023-08-12T13:30:21;22.40;99.90
46091;DHT22;31826;53.572;10.170;2023-08-12T13:32:47;22.30;99.90
46091;DHT22;31826;53.572;10.170;2023-08-12T13:35:13;22.10;99.90
46091;DHT22;31826;53.572;10.170;2023-08-12T13:37:38;22.10;99.90
46091;DHT22;31826;53.572;10.170;2023-08-12T13:40:04;22.00;99.90
46091;DHT22;31826;53.572;10.170;2023-08-12T13:42:30;22.00;99.90
46091;DHT22;31826;53.572;10.170;2023-08-12T13:44:56;21.90;99.90
46091;DHT22;31826;53.572;10.170;2023-08-12T13:47:22;21.80;99.90
46091;DHT22;31826;53.572;10.170;2023-08-12T13:49:47;21.60;99.90
46091;DHT22;31826;53.572;10.170;2023-08-12T13:52:13;21.60;99.90
46091;DHT22;31826;53.572;10.170;2023-08-12T13:54:39;21.50;99.90
46091;DHT22;31826;53.572;10.170;2023-08-12T13:57:04;21.50;99.90
46091;DHT22;31826;53.572;10.170;2023-08-12T13:59:30;21.50;99.90
46091;DHT22;31826;53.572;10.170;2023-08-12T14:01:56;21.50;99.90
46091;DHT22;31826;53.572;10.170;2023-08-12T14:04:21;21.50;99.90
46091;DHT22;31826;53.572;10.170;2023-08-12T14:06:47;21.50;99.90
46091;DHT22;31826;53.572;10.170;2023-08-12T14:09:13;21.50;99.90
46091;DHT22;31826;53.572;10.170;2023-08-12T14:11:40;21.50;99.90
46091;DHT22;31826;53.572;10.170;2023-08-12T14:14:06;21.60;99.90
46091;DHT22;31826;53.572;10.170;2023-08-12T14:16:31;21.70;99.90
46091;DHT22;31826;53.572;10.170;2023-08-12T14:18:57;21.70;99.90
46091;DHT22;31826;53.572;10.170;2023-08-12T14:21:23;21.60;99.90
46091;DHT22;31826;53.572;10.170;2023-08-12T14:23:48;21.60;99.90
46091;DHT22;31826;53.572;10.170;2023-08-12T14:26:14;21.70;99.90
46091;DHT22;31826;53.572;10.170;2023-08-12T14:28:40;21.70;99.90
46091;DHT22;31826;53.572;10.170;2023-08-12T14:31:05;21.70;99.90
46091;DHT22;31826;53.572;10.170;2023-08-12T14:33:31;21.80;99.90
46091;DHT22;31826;53.572;10.170;2023-08-12T14:36:00;21.80;99.90
46091;DHT22;31826;53.572;10.170;2023-08-12T14:38:25;21.80;99.90
46091;DHT22;31826;53.572;10.170;2023-08-12T14:40:51;21.80;99.90
46091;DHT22;31826;53.572;10.170;2023-08-12T14:43:17;21.70;99.90
46091;DHT22;31826;53.572;10.170;2023-08-12T14:45:46;21.80;99.90
46091;DHT22;31826;53.572;10.170;2023-08-12T14:48:12;21.70;99.90
46091;DHT22;31826;53.572;10.170;2023-08-12T14:50:38;21.70;99.90
46091;DHT22;31826;53.572;10.170;2023-08-12T14:53:04;21.60;99.90
46091;DHT22;31826;53.572;10.170;2023-08-12T14:55:30;21.50;99.90
46091;DHT22;31826;53.572;10.170;2023-08-12T14:57:56;21.50;99.90
46091;DHT22;31826;53.572;10.170;2023-08-12T15:00:21;21.50;99.90
46091;DHT22;31826;53.572;10.170;2023-08-12T15:02:47;21.50;99.90
46091;DHT22;31826;53.572;10.170;2023-08-12T15:05:13;21.50;99.90
46091;DHT22;31826;53.572;10.170;2023-08-12T15:07:38;21.40;99.90
46091;DHT22;31826;53.572;10.170;2023-08-12T15:10:05;21.30;99.90
46091;DHT22;31826;53.572;10.170;2023-08-12T15:12:30;21.40;99.90
46091;DHT22;31826;53.572;10.170;2023-08-12T15:14:56;21.40;99.90
46091;DHT22;31826;53.572;10.170;2023-08-12T15:17:22;21.30;99.90
46091;DHT22;31826;53.572;10.170;2023-08-12T15:19:48;21.30;99.90
46091;DHT22;31826;53.572;10.170;2023-08-12T15:22:14;21.20;99.90
46091;DHT22;31826;53.572;10.170;2023-08-12T15:24:40;21.40;99.90